Flight Track Log - Related Links

Times and Time Zones

All times are in EST time to prevent confusion due to time zone crossing. See the SWA614 flight status page for this flight to view local times or setup timezone preferences in your user account.

Time Position Orientation Groundspeed Altitude Reporting Facility
EST Latitude Longitude Course Direction KTS MPH feet Rate Location/Type
08:51AM 39.9000 -104.6500 90° East 186 214 7,400  Level Denver TRACON
08:52AM 39.8833 -104.5833 108° East 254 292 9,800 1,857 Climbing Denver TRACON
08:53AM 39.8589 -104.5350 123° Southeast 274 315 10,000 326 Climbing Denver Center
08:54AM 39.8222 -104.4258 114° Southeast 323 372 10,300 1,884 Climbing Denver Center
08:55AM 39.8069 -104.3039 99° East 342 394 13,800 3,689 Climbing Denver Center
08:56AM 39.7922 -104.1717 98° East 368 423 17,800 3,313 Climbing Denver Center
08:57AM 39.7500 -103.8016 90° East  Level FlightAware Approximate
08:57AM 39.7747 -104.0347 99° East 391 450 21,200  Level Denver Center
08:58AM 39.7542 -103.8617 99° East 404 465 25,300 3,295 Climbing Denver Center
08:59AM 39.7386 -103.7092 98° East 421 484 27,900 2,380 Climbing Denver Center
09:00AM 39.7253 -103.5483 96° East 442 509 30,100 1,934 Climbing Denver Center
09:01AM 39.7128 -103.3797 95° East 465 535 31,800 1,967 Climbing Denver Center
09:02AM 39.6986 -103.2056 96° East 484 557 34,100 2,115 Climbing Denver Center
09:03AM 39.6833 -103.0356 97° East 476 548 36,100 1,377 Climbing Denver Center
09:04AM 39.6694 -102.8600 96° East 487 560 36,900 1,525 Climbing Denver Center
09:05AM 39.6519 -102.6647 97° East 503 579 39,200 1,983 Climbing Denver Center
09:06AM 39.6361 -102.4722 96° East 484 557 40,900 857 Climbing Denver Center
09:07AM 39.6208 -102.3056 97° East 486 559 41,100 90 Climbing Denver Center
09:08AM 39.6017 -102.0878 96° East 480 552 41,100  Level Denver Center
09:09AM 39.5867 -101.9217 97° East 483 556 41,100  Level Denver Center
09:10AM 39.5736 -101.7567 96° East 484 557 41,100  Level Denver Center
09:11AM 39.5586 -101.5617 96° East 488 562 41,100  Level Denver Center
09:12AM 39.5431 -101.3947 97° East 489 563 41,100  Level Denver Center
09:13AM 39.5192 -101.2319 101° East 483 556 41,100  Level Denver Center
09:14AM 39.4906 -101.0406 101° East 484 557 41,100  Level Denver Center
09:15AM 39.4669 -100.8756 100° East 488 562 41,100  Level Denver Center
09:16AM 39.4364 -100.6858 102° East 485 558 41,100  Level Denver Center
09:17AM 39.4128 -100.5256 101° East 478 550 41,100  Level Denver Center
09:18AM 39.3872 -100.3642 102° East 478 550 41,100  Level Denver Center
09:19AM 39.3581 -100.1786 101° East 475 547 41,100  Level Denver Center
09:20AM 39.3331 -100.0186 101° East 474 545 41,100  Level Denver Center
09:21AM 39.3078 -99.8592 102° East 474 545 41,100  Level Denver Center
09:22AM 39.2775 -99.6717 102° East 478 550 41,100  Level Denver Center
09:23AM 39.2511 -99.5106 102° East 480 552 41,100  Level Denver Center
09:24AM 39.2244 -99.3483 102° East 483 556 41,100  Level Denver Center
09:25AM 39.1933 -99.1553 102° East 489 563 41,100  Level Denver Center
09:26AM 39.1650 -98.9947 103° East 487 560 41,100  Level Denver Center
09:27AM 39.1461 -98.8733 101° East 489 563 41,100  Level Kansas City Center
09:28AM 39.1094 -98.6678 103° East 489 563 41,100  Level Kansas City Center
09:29AM 39.0811 -98.4969 102° East 489 563 41,100  Level Kansas City Center
09:30AM 39.0664 -98.3208 96° East 491 565 41,100  Level Kansas City Center
09:31AM 39.0533 -98.1453 95° East 492 566 41,100  Level Kansas City Center
09:32AM 39.0394 -97.9703 96° East 492 566 41,100  Level Kansas City Center
09:33AM 39.0258 -97.7903 96° East 490 564 41,100 -439 Level Kansas City Center
09:34AM 39.0097 -97.5972 96° East 487 560 40,200 -871 Descending Kansas City Center
09:36AM 38.9950 -97.4294 96° East 493 567 39,300 -919 Descending Kansas City Center
09:37AM 38.9781 -97.2286 96° East 517 595 38,300 -1,525 Descending Kansas City Center
09:38AM 38.9625 -97.0453 96° East 518 596 36,200 -2,380 Descending Kansas City Center
09:39AM 38.9461 -96.8694 97° East 498 573 33,500 -2,592 Descending Kansas City Center
09:40AM 38.9294 -96.6986 97° East 486 559 30,800 -2,496 Descending Kansas City Center
09:41AM 38.9164 -96.5303 96° East 480 552 28,300 -2,439 Descending Kansas City Center
09:42AM 38.8992 -96.3517 97° East 459 528 25,800 -2,244 Descending Kansas City Center
09:43AM 38.8836 -96.2067 98° East 440 506 23,700 -2,164 Descending Kansas City Center
09:44AM 38.8683 -96.0456 97° East 412 474 21,400 -1,597 Descending Kansas City Center
09:45AM 38.8856 -95.9106 81° East 405 466 20,400 -1,190 Descending Kansas City Center
09:46AM 38.9253 -95.7783 69° East 412 474 18,900 -1,872 Descending Kansas City Center
09:47AM 38.9619 -95.6325 72° East 387 445 16,500 -1,721 Descending Kansas City Center
09:48AM 38.9608 -95.5136 91° East 352 405 15,400 -1,537 Descending Kansas City Center
09:49AM 38.9392 -95.3917 103° East 321 369 13,400 -1,935 Descending Kansas City Center
09:50AM 38.9094 -95.2956 112° Southeast 309 356 11,400 -1,742 Descending Kansas City Center
09:51AM 38.8722 -95.1833 113° Southeast 308 354 9,800 -1,500 Descending Kansas City Center
09:52AM 38.9033 -95.0847 68° East 322 371 8,300 -1,306 Descending Kansas City Center
09:53AM 38.9697 -94.9942 47° Northeast 313 360 7,100 -629 Descending Kansas City Center
09:54AM 39.0083 -94.9050 61° Northeast 301 346 7,000 -677 Descending Kansas City Center
09:55AM 39.0503 -94.8158 59° Northeast 263 303 5,700 -992 Descending Kansas City Center
09:56AM 39.0981 -94.7608 42° Northeast 243 280 5,000 -726 Descending Kansas City Center
09:57AM 39.1642 -94.7436 11° North 214 246 4,200 -912 Descending Kansas City Center
09:58AM 39.2100 -94.7300 13° North 183 211 3,100 -1,210 Descending Kansas City Center
09:59AM 39.2544 -94.7172 13° North 145 167 1,700 -968 Descending Kansas City Center
10:00AM 39.2861 -94.7089 12° North 120 138 1,100 -590 Descending Kansas City Center
10:02AM 39.2833 -94.7000 35° Northeast  Level FlightAware Approximate

Login

Don't have an account? Register now (free) for customized features, flight alerts, and more!